sensor_id;sensor_type;location;lat;lon;timestamp;pressure;altitude;pressure_sealevel;temperature;humidity
42125;BME280;27787;44.594;11.046;2022-11-28T00:01:36;101757.22;;;5.74;87.82
42125;BME280;27787;44.594;11.046;2022-11-28T00:04:20;101753.50;;;5.69;88.82
42125;BME280;27787;44.594;11.046;2022-11-28T00:07:04;101755.34;;;5.72;88.97
42125;BME280;27787;44.594;11.046;2022-11-28T00:09:48;101754.84;;;5.80;88.70
42125;BME280;27787;44.594;11.046;2022-11-28T00:12:34;101756.69;;;5.83;87.95
42125;BME280;27787;44.594;11.046;2022-11-28T00:15:18;101754.25;;;5.86;87.70
42125;BME280;27787;44.594;11.046;2022-11-28T00:18:02;101738.84;;;5.94;87.55
42125;BME280;27787;44.594;11.046;2022-11-28T00:20:47;101740.31;;;5.87;86.90
42125;BME280;27787;44.594;11.046;2022-11-28T00:23:31;101732.81;;;5.75;87.18
42125;BME280;27787;44.594;11.046;2022-11-28T00:29:06;101737.25;;;5.57;88.86
42125;BME280;27787;44.594;11.046;2022-11-28T00:31:50;101725.69;;;5.52;89.16
42125;BME280;27787;44.594;11.046;2022-11-28T00:34:35;101731.47;;;5.45;89.49
42125;BME280;27787;44.594;11.046;2022-11-28T00:37:19;101725.28;;;5.43;89.71
42125;BME280;27787;44.594;11.046;2022-11-28T00:40:02;101725.09;;;5.38;89.95
42125;BME280;27787;44.594;11.046;2022-11-28T00:42:47;101728.56;;;5.37;90.39
42125;BME280;27787;44.594;11.046;2022-11-28T00:45:31;101734.25;;;5.48;89.87
42125;BME280;27787;44.594;11.046;2022-11-28T00:48:15;101734.38;;;5.51;88.84
42125;BME280;27787;44.594;11.046;2022-11-28T00:51:21;101716.94;;;5.51;88.41
42125;BME280;27787;44.594;11.046;2022-11-28T00:54:06;101719.97;;;5.60;88.20
42125;BME280;27787;44.594;11.046;2022-11-28T00:56:50;101714.97;;;5.67;87.45
42125;BME280;27787;44.594;11.046;2022-11-28T00:59:34;101714.44;;;5.74;86.79
42125;BME280;27787;44.594;11.046;2022-11-28T01:02:18;101722.84;;;5.87;85.54
42125;BME280;27787;44.594;11.046;2022-11-28T01:05:03;101721.53;;;5.97;84.94
42125;BME280;27787;44.594;11.046;2022-11-28T01:07:47;101720.78;;;6.00;84.38
42125;BME280;27787;44.594;11.046;2022-11-28T01:10:31;101713.59;;;5.96;84.13
42125;BME280;27787;44.594;11.046;2022-11-28T01:13:15;101717.78;;;5.90;84.10
42125;BME280;27787;44.594;11.046;2022-11-28T01:15:59;101716.72;;;5.87;84.45
42125;BME280;27787;44.594;11.046;2022-11-28T01:18:44;101718.34;;;5.85;84.61
42125;BME280;27787;44.594;11.046;2022-11-28T01:21:28;101716.44;;;5.81;84.78
42125;BME280;27787;44.594;11.046;2022-11-28T01:24:13;101716.22;;;5.75;84.88
42125;BME280;27787;44.594;11.046;2022-11-28T01:26:57;101708.06;;;5.69;85.47
42125;BME280;27787;44.594;11.046;2022-11-28T01:29:42;101708.91;;;5.68;85.74
42125;BME280;27787;44.594;11.046;2022-11-28T01:32:26;101699.31;;;5.68;86.31
42125;BME280;27787;44.594;11.046;2022-11-28T01:35:10;101705.16;;;5.61;86.33
42125;BME280;27787;44.594;11.046;2022-11-28T01:37:54;101703.97;;;5.54;86.83
42125;BME280;27787;44.594;11.046;2022-11-28T01:40:44;101692.22;;;5.45;87.33
42125;BME280;27787;44.594;11.046;2022-11-28T01:43:28;101688.38;;;5.37;87.90
42125;BME280;27787;44.594;11.046;2022-11-28T01:46:13;101686.31;;;5.29;88.59
42125;BME280;27787;44.594;11.046;2022-11-28T01:49:02;101682.69;;;5.26;89.00
42125;BME280;27787;44.594;11.046;2022-11-28T01:51:53;101672.91;;;5.22;89.44
42125;BME280;27787;44.594;11.046;2022-11-28T01:54:41;101674.53;;;5.20;89.44
42125;BME280;27787;44.594;11.046;2022-11-28T01:57:27;101678.69;;;5.15;89.62
42125;BME280;27787;44.594;11.046;2022-11-28T02:00:15;101667.16;;;5.10;89.28
42125;BME280;27787;44.594;11.046;2022-11-28T02:03:04;101660.13;;;5.09;89.73
42125;BME280;27787;44.594;11.046;2022-11-28T02:05:49;101655.19;;;5.16;89.53
42125;BME280;27787;44.594;11.046;2022-11-28T02:08:35;101657.00;;;5.17;88.54
42125;BME280;27787;44.594;11.046;2022-11-28T02:17:43;101645.94;;;5.03;89.30
42125;BME280;27787;44.594;11.046;2022-11-28T02:21:10;101655.50;;;5.22;88.91
42125;BME280;27787;44.594;11.046;2022-11-28T02:24:26;101650.00;;;5.37;88.01
42125;BME280;27787;44.594;11.046;2022-11-28T02:27:52;101639.78;;;5.43;87.63
42125;BME280;27787;44.594;11.046;2022-11-28T02:34:09;101636.84;;;5.36;87.91
42125;BME280;27787;44.594;11.046;2022-11-28T02:37:05;101637.41;;;5.28;88.22
42125;BME280;27787;44.594;11.046;2022-11-28T02:40:02;101634.69;;;5.25;88.32
42125;BME280;27787;44.594;11.046;2022-11-28T02:48:31;101629.75;;;5.33;88.30
42125;BME280;27787;44.594;11.046;2022-11-28T02:51:25;101627.34;;;5.38;88.29
42125;BME280;27787;44.594;11.046;2022-11-28T02:54:14;101620.38;;;5.38;88.54
42125;BME280;27787;44.594;11.046;2022-11-28T02:56:58;101629.91;;;5.36;88.34
42125;BME280;27787;44.594;11.046;2022-11-28T02:59:46;101623.84;;;5.37;88.49
42125;BME280;27787;44.594;11.046;2022-11-28T03:02:31;101624.00;;;5.42;88.58
42125;BME280;27787;44.594;11.046;2022-11-28T03:12:15;101611.31;;;5.30;88.04
42125;BME280;27787;44.594;11.046;2022-11-28T03:15:05;101617.25;;;5.26;88.79
42125;BME280;27787;44.594;11.046;2022-11-28T03:17:56;101624.19;;;5.25;89.22
42125;BME280;27787;44.594;11.046;2022-11-28T03:23:58;101620.69;;;5.25;89.34
42125;BME280;27787;44.594;11.046;2022-11-28T03:29:51;101621.25;;;5.18;89.96
42125;BME280;27787;44.594;11.046;2022-11-28T03:32:38;101627.25;;;5.15;90.19
42125;BME280;27787;44.594;11.046;2022-11-28T03:35:26;101631.53;;;5.13;90.78
42125;BME280;27787;44.594;11.046;2022-11-28T03:38:19;101623.88;;;5.18;91.13
42125;BME280;27787;44.594;11.046;2022-11-28T03:41:13;101612.00;;;5.26;90.85
42125;BME280;27787;44.594;11.046;2022-11-28T03:44:00;101603.50;;;5.31;90.29
42125;BME280;27787;44.594;11.046;2022-11-28T03:46:47;101601.09;;;5.36;90.25
42125;BME280;27787;44.594;11.046;2022-11-28T03:49:40;101608.25;;;5.40;89.32
42125;BME280;27787;44.594;11.046;2022-11-28T03:52:32;101598.78;;;5.44;88.37
42125;BME280;27787;44.594;11.046;2022-11-28T03:55:23;101586.41;;;5.40;88.40
42125;BME280;27787;44.594;11.046;2022-11-28T04:01:12;101583.78;;;5.40;88.74
42125;BME280;27787;44.594;11.046;2022-11-28T04:04:31;101588.91;;;5.37;89.37
42125;BME280;27787;44.594;11.046;2022-11-28T04:07:38;101589.75;;;5.36;89.55
42125;BME280;27787;44.594;11.046;2022-11-28T04:10:31;101583.63;;;5.35;90.25
42125;BME280;27787;44.594;11.046;2022-11-28T04:13:26;101582.63;;;5.33;90.56
42125;BME280;27787;44.594;11.046;2022-11-28T04:16:30;101582.63;;;5.33;89.89
42125;BME280;27787;44.594;11.046;2022-11-28T04:19:24;101577.53;;;5.36;89.04
42125;BME280;27787;44.594;11.046;2022-11-28T04:22:37;101574.97;;;5.38;89.16
42125;BME280;27787;44.594;11.046;2022-11-28T04:25:23;101585.56;;;5.41;89.18
42125;BME280;27787;44.594;11.046;2022-11-28T04:28:12;101582.19;;;5.43;88.73
42125;BME280;27787;44.594;11.046;2022-11-28T04:31:00;101580.56;;;5.47;88.10
42125;BME280;27787;44.594;11.046;2022-11-28T04:33:49;101582.56;;;5.52;87.50
42125;BME280;27787;44.594;11.046;2022-11-28T04:36:36;101582.69;;;5.55;86.91
42125;BME280;27787;44.594;11.046;2022-11-28T04:39:24;101578.34;;;5.56;86.78
42125;BME280;27787;44.594;11.046;2022-11-28T04:42:15;101589.03;;;5.60;86.55
42125;BME280;27787;44.594;11.046;2022-11-28T04:45:49;101583.28;;;5.71;86.42
42125;BME280;27787;44.594;11.046;2022-11-28T04:48:08;101580.22;;;5.81;85.64
42125;BME280;27787;44.594;11.046;2022-11-28T04:51:04;101579.78;;;5.91;85.46
42125;BME280;27787;44.594;11.046;2022-11-28T04:54:00;101584.31;;;5.95;84.60
42125;BME280;27787;44.594;11.046;2022-11-28T04:56:59;101582.25;;;5.88;84.31
42125;BME280;27787;44.594;11.046;2022-11-28T04:59:45;101582.84;;;5.81;84.72
42125;BME280;27787;44.594;11.046;2022-11-28T05:02:30;101580.38;;;5.85;84.83
42125;BME280;27787;44.594;11.046;2022-11-28T05:05:19;101582.53;;;5.94;84.59
42125;BME280;27787;44.594;11.046;2022-11-28T05:08:04;101582.53;;;5.94;84.10
42125;BME280;27787;44.594;11.046;2022-11-28T05:10:48;101577.09;;;5.89;84.20
42125;BME280;27787;44.594;11.046;2022-11-28T05:13:32;101587.34;;;5.85;84.10
42125;BME280;27787;44.594;11.046;2022-11-28T05:16:17;101572.13;;;5.75;85.09
42125;BME280;27787;44.594;11.046;2022-11-28T05:19:01;101577.06;;;5.67;86.09
42125;BME280;27787;44.594;11.046;2022-11-28T05:21:46;101576.94;;;5.64;86.50
42125;BME280;27787;44.594;11.046;2022-11-28T05:24:30;101563.00;;;5.65;86.63
42125;BME280;27787;44.594;11.046;2022-11-28T05:27:14;101563.91;;;5.66;86.60
42125;BME280;27787;44.594;11.046;2022-11-28T05:29:58;101558.66;;;5.66;86.92
42125;BME280;27787;44.594;11.046;2022-11-28T05:32:41;101563.00;;;5.65;87.49
42125;BME280;27787;44.594;11.046;2022-11-28T05:35:26;101560.34;;;5.63;87.88
42125;BME280;27787;44.594;11.046;2022-11-28T05:38:10;101551.53;;;5.61;88.05
42125;BME280;27787;44.594;11.046;2022-11-28T05:40:54;101557.72;;;5.63;88.02
42125;BME280;27787;44.594;11.046;2022-11-28T05:43:38;101551.75;;;5.68;88.07
42125;BME280;27787;44.594;11.046;2022-11-28T05:46:23;101549.13;;;5.68;87.69
42125;BME280;27787;44.594;11.046;2022-11-28T05:49:07;101550.09;;;5.70;87.84
42125;BME280;27787;44.594;11.046;2022-11-28T05:51:51;101557.16;;;5.72;87.30
42125;BME280;27787;44.594;11.046;2022-11-28T05:54:35;101546.88;;;5.77;86.30
42125;BME280;27787;44.594;11.046;2022-11-28T05:57:19;101549.63;;;5.80;85.91
42125;BME280;27787;44.594;11.046;2022-11-28T06:00:04;101541.88;;;5.83;85.62
42125;BME280;27787;44.594;11.046;2022-11-28T06:02:56;101553.03;;;5.77;85.42
42125;BME280;27787;44.594;11.046;2022-11-28T06:05:41;101547.91;;;5.80;85.68
42125;BME280;27787;44.594;11.046;2022-11-28T06:08:26;101551.47;;;5.82;85.63
42125;BME280;27787;44.594;11.046;2022-11-28T06:11:10;101549.03;;;5.87;85.50
42125;BME280;27787;44.594;11.046;2022-11-28T06:13:55;101543.81;;;5.87;85.27
42125;BME280;27787;44.594;11.046;2022-11-28T06:16:39;101544.00;;;5.91;85.62
42125;BME280;27787;44.594;11.046;2022-11-28T06:19:24;101545.84;;;5.94;85.83
42125;BME280;27787;44.594;11.046;2022-11-28T06:22:08;101547.81;;;6.00;85.75
42125;BME280;27787;44.594;11.046;2022-11-28T06:24:52;101541.06;;;6.06;85.44
42125;BME280;27787;44.594;11.046;2022-11-28T06:27:36;101533.25;;;6.08;85.40
42125;BME280;27787;44.594;11.046;2022-11-28T06:30:20;101529.81;;;6.09;85.23
42125;BME280;27787;44.594;11.046;2022-11-28T06:33:04;101530.59;;;6.06;85.22
42125;BME280;27787;44.594;11.046;2022-11-28T06:35:48;101527.75;;;6.00;85.30
42125;BME280;27787;44.594;11.046;2022-11-28T06:38:33;101532.63;;;5.91;85.52
42125;BME280;27787;44.594;11.046;2022-11-28T06:41:19;101524.63;;;5.88;86.29
42125;BME280;27787;44.594;11.046;2022-11-28T06:44:03;101525.31;;;5.84;86.33
42125;BME280;27787;44.594;11.046;2022-11-28T06:46:47;101523.47;;;5.81;86.60
42125;BME280;27787;44.594;11.046;2022-11-28T06:49:31;101523.31;;;5.77;87.41
42125;BME280;27787;44.594;11.046;2022-11-28T06:52:15;101513.63;;;5.74;87.44
42125;BME280;27787;44.594;11.046;2022-11-28T06:55:00;101506.50;;;5.72;88.16
42125;BME280;27787;44.594;11.046;2022-11-28T06:57:44;101509.38;;;5.78;88.83
42125;BME280;27787;44.594;11.046;2022-11-28T07:00:28;101506.88;;;5.81;87.71
42125;BME280;27787;44.594;11.046;2022-11-28T07:03:12;101512.22;;;5.84;86.87
42125;BME280;27787;44.594;11.046;2022-11-28T07:05:59;101501.78;;;5.85;86.67
42125;BME280;27787;44.594;11.046;2022-11-28T07:08:44;101501.78;;;5.85;87.29
42125;BME280;27787;44.594;11.046;2022-11-28T07:11:30;101503.31;;;5.79;88.14
42125;BME280;27787;44.594;11.046;2022-11-28T07:14:14;101497.06;;;5.75;88.42
42125;BME280;27787;44.594;11.046;2022-11-28T07:16:58;101489.00;;;5.71;89.17
42125;BME280;27787;44.594;11.046;2022-11-28T07:19:43;101482.88;;;5.70;89.04
42125;BME280;27787;44.594;11.046;2022-11-28T07:22:27;101482.09;;;5.73;89.38
42125;BME280;27787;44.594;11.046;2022-11-28T07:25:11;101483.06;;;5.75;89.86
42125;BME280;27787;44.594;11.046;2022-11-28T07:27:58;101475.31;;;5.78;90.54
42125;BME280;27787;44.594;11.046;2022-11-28T07:30:42;101479.00;;;5.83;90.83
42125;BME280;27787;44.594;11.046;2022-11-28T07:33:26;101471.13;;;5.83;90.92
42125;BME280;27787;44.594;11.046;2022-11-28T07:36:16;101465.06;;;5.84;90.93
42125;BME280;27787;44.594;11.046;2022-11-28T07:39:02;101459.81;;;5.84;91.23
42125;BME280;27787;44.594;11.046;2022-11-28T07:41:46;101458.97;;;5.85;91.73
42125;BME280;27787;44.594;11.046;2022-11-28T07:44:30;101467.97;;;5.90;91.85
42125;BME280;27787;44.594;11.046;2022-11-28T07:47:14;101461.88;;;5.91;91.65
42125;BME280;27787;44.594;11.046;2022-11-28T07:49:58;101466.22;;;5.90;91.43
42125;BME280;27787;44.594;11.046;2022-11-28T07:52:42;101460.91;;;5.89;91.40
42125;BME280;27787;44.594;11.046;2022-11-28T07:55:26;101464.50;;;5.91;90.99
42125;BME280;27787;44.594;11.046;2022-11-28T07:58:11;101472.47;;;5.94;90.52
42125;BME280;27787;44.594;11.046;2022-11-28T08:00:55;101470.94;;;5.99;90.20
42125;BME280;27787;44.594;11.046;2022-11-28T08:03:40;101471.03;;;6.02;90.02
42125;BME280;27787;44.594;11.046;2022-11-28T08:06:28;101475.50;;;6.05;89.46
42125;BME280;27787;44.594;11.046;2022-11-28T08:09:13;101469.47;;;6.07;89.40
42125;BME280;27787;44.594;11.046;2022-11-28T08:11:57;101478.41;;;6.12;90.16
42125;BME280;27787;44.594;11.046;2022-11-28T08:14:41;101476.75;;;6.14;90.61
42125;BME280;27787;44.594;11.046;2022-11-28T08:17:26;101480.41;;;6.19;90.85
42125;BME280;27787;44.594;11.046;2022-11-28T08:20:10;101475.31;;;6.24;89.83
42125;BME280;27787;44.594;11.046;2022-11-28T08:22:54;101466.69;;;6.27;89.72
42125;BME280;27787;44.594;11.046;2022-11-28T08:25:39;101480.56;;;6.24;89.32
42125;BME280;27787;44.594;11.046;2022-11-28T08:28:23;101460.44;;;6.23;88.50
42125;BME280;27787;44.594;11.046;2022-11-28T08:31:22;101464.78;;;6.22;88.07
42125;BME280;27787;44.594;11.046;2022-11-28T08:34:09;101468.25;;;6.21;87.88
42125;BME280;27787;44.594;11.046;2022-11-28T08:36:53;101466.41;;;6.19;87.79
42125;BME280;27787;44.594;11.046;2022-11-28T08:39:37;101470.72;;;6.17;88.17
42125;BME280;27787;44.594;11.046;2022-11-28T08:42:21;101471.44;;;6.13;88.40
42125;BME280;27787;44.594;11.046;2022-11-28T08:45:06;101472.97;;;6.08;88.54
42125;BME280;27787;44.594;11.046;2022-11-28T08:47:51;101478.97;;;6.04;88.89
42125;BME280;27787;44.594;11.046;2022-11-28T08:50:36;101478.16;;;6.06;89.87
42125;BME280;27787;44.594;11.046;2022-11-28T08:53:20;101475.56;;;6.06;89.73
42125;BME280;27787;44.594;11.046;2022-11-28T08:56:05;101477.34;;;6.07;89.64
42125;BME280;27787;44.594;11.046;2022-11-28T08:58:49;101479.06;;;6.07;89.67
42125;BME280;27787;44.594;11.046;2022-11-28T09:01:33;101478.28;;;6.09;89.89
42125;BME280;27787;44.594;11.046;2022-11-28T09:04:19;101488.91;;;6.12;92.00
42125;BME280;27787;44.594;11.046;2022-11-28T09:07:03;101482.09;;;6.17;91.92
42125;BME280;27787;44.594;11.046;2022-11-28T09:09:47;101481.28;;;6.20;91.32
42125;BME280;27787;44.594;11.046;2022-11-28T09:12:31;101477.88;;;6.22;91.55
42125;BME280;27787;44.594;11.046;2022-11-28T09:15:16;101470.97;;;6.25;91.29
42125;BME280;27787;44.594;11.046;2022-11-28T09:18:01;101482.38;;;6.25;90.97
42125;BME280;27787;44.594;11.046;2022-11-28T09:20:46;101473.59;;;6.25;91.51
42125;BME280;27787;44.594;11.046;2022-11-28T09:23:30;101479.22;;;6.35;91.68
42125;BME280;27787;44.594;11.046;2022-11-28T09:26:20;101483.50;;;6.57;92.25
42125;BME280;27787;44.594;11.046;2022-11-28T09:29:04;101485.88;;;6.75;90.34
42125;BME280;27787;44.594;11.046;2022-11-28T09:31:48;101480.56;;;6.73;89.63
42125;BME280;27787;44.594;11.046;2022-11-28T09:34:32;101476.22;;;6.74;89.29
42125;BME280;27787;44.594;11.046;2022-11-28T09:37:16;101469.00;;;6.67;89.14
42125;BME280;27787;44.594;11.046;2022-11-28T09:40:00;101462.72;;;6.63;89.28
42125;BME280;27787;44.594;11.046;2022-11-28T09:42:44;101455.53;;;6.58;90.03
42125;BME280;27787;44.594;11.046;2022-11-28T09:45:29;101461.63;;;6.57;91.11
42125;BME280;27787;44.594;11.046;2022-11-28T09:48:29;101466.31;;;6.65;90.65
42125;BME280;27787;44.594;11.046;2022-11-28T09:54:55;101444.00;;;6.78;89.70
42125;BME280;27787;44.594;11.046;2022-11-28T09:57:47;101455.97;;;6.70;89.26
42125;BME280;27787;44.594;11.046;2022-11-28T10:00:38;101450.63;;;6.67;89.77
42125;BME280;27787;44.594;11.046;2022-11-28T10:06:20;101452.44;;;6.69;89.63
42125;BME280;27787;44.594;11.046;2022-11-28T10:15:00;101448.72;;;6.63;92.01
42125;BME280;27787;44.594;11.046;2022-11-28T10:18:14;101440.31;;;6.73;92.45
42125;BME280;27787;44.594;11.046;2022-11-28T10:24:02;101420.25;;;7.00;91.97
42125;BME280;27787;44.594;11.046;2022-11-28T10:26:50;101416.03;;;7.05;91.08
42125;BME280;27787;44.594;11.046;2022-11-28T10:29:46;101407.28;;;7.05;91.11
42125;BME280;27787;44.594;11.046;2022-11-28T10:32:37;101394.34;;;7.11;91.78
42125;BME280;27787;44.594;11.046;2022-11-28T10:38:14;101380.22;;;7.36;91.42
42125;BME280;27787;44.594;11.046;2022-11-28T10:44:21;101380.25;;;7.66;90.60
42125;BME280;27787;44.594;11.046;2022-11-28T10:54:08;101376.66;;;7.94;89.91
42125;BME280;27787;44.594;11.046;2022-11-28T11:00:11;101367.94;;;7.95;90.31
42125;BME280;27787;44.594;11.046;2022-11-28T11:02:59;101365.94;;;7.86;90.78
42125;BME280;27787;44.594;11.046;2022-11-28T11:05:45;101364.13;;;7.84;91.76
42125;BME280;27787;44.594;11.046;2022-11-28T11:08:34;101372.06;;;7.85;91.56
42125;BME280;27787;44.594;11.046;2022-11-28T11:11:25;101366.22;;;7.95;91.57
42125;BME280;27787;44.594;11.046;2022-11-28T11:14:10;101370.84;;;8.06;90.98
42125;BME280;27787;44.594;11.046;2022-11-28T11:16:55;101368.47;;;8.15;89.72
42125;BME280;27787;44.594;11.046;2022-11-28T11:19:41;101372.00;;;8.15;88.47
42125;BME280;27787;44.594;11.046;2022-11-28T11:22:29;101372.03;;;8.17;87.78
42125;BME280;27787;44.594;11.046;2022-11-28T11:25:16;101362.28;;;8.13;88.01
42125;BME280;27787;44.594;11.046;2022-11-28T11:28:03;101362.34;;;8.16;89.17
42125;BME280;27787;44.594;11.046;2022-11-28T11:30:47;101359.75;;;8.17;89.21
42125;BME280;27787;44.594;11.046;2022-11-28T11:33:36;101365.25;;;8.25;89.06
42125;BME280;27787;44.594;11.046;2022-11-28T11:36:27;101360.03;;;8.26;88.40
42125;BME280;27787;44.594;11.046;2022-11-28T11:44:44;101358.72;;;8.11;90.12
42125;BME280;27787;44.594;11.046;2022-11-28T11:47:39;101353.22;;;8.02;90.36
42125;BME280;27787;44.594;11.046;2022-11-28T11:50:27;101360.00;;;7.93;89.08
42125;BME280;27787;44.594;11.046;2022-11-28T11:53:12;101358.75;;;7.81;87.49
42125;BME280;27787;44.594;11.046;2022-11-28T11:56:00;101356.97;;;7.80;88.38
42125;BME280;27787;44.594;11.046;2022-11-28T11:58:49;101342.06;;;7.79;88.90
42125;BME280;27787;44.594;11.046;2022-11-28T12:01:36;101328.81;;;7.74;89.75
42125;BME280;27787;44.594;11.046;2022-11-28T12:04:41;101331.47;;;7.76;88.38
42125;BME280;27787;44.594;11.046;2022-11-28T12:10:36;101314.84;;;7.77;87.08
42125;BME280;27787;44.594;11.046;2022-11-28T12:13:23;101317.53;;;7.78;88.28
42125;BME280;27787;44.594;11.046;2022-11-28T12:19:40;101288.56;;;7.77;90.18
42125;BME280;27787;44.594;11.046;2022-11-28T12:22:36;101284.25;;;7.79;90.49
42125;BME280;27787;44.594;11.046;2022-11-28T12:25:24;101289.72;;;7.86;90.35
42125;BME280;27787;44.594;11.046;2022-11-28T12:34:48;101279.28;;;7.89;88.63
42125;BME280;27787;44.594;11.046;2022-11-28T12:43:47;101260.53;;;7.76;87.95
42125;BME280;27787;44.594;11.046;2022-11-28T12:55:59;101255.03;;;7.99;87.48
42125;BME280;27787;44.594;11.046;2022-11-28T12:58:49;101261.22;;;8.03;86.98
42125;BME280;27787;44.594;11.046;2022-11-28T13:07:43;101257.69;;;8.01;86.31
42125;BME280;27787;44.594;11.046;2022-11-28T13:10:44;101266.34;;;7.97;86.75
42125;BME280;27787;44.594;11.046;2022-11-28T13:13:40;101255.63;;;7.89;87.30
42125;BME280;27787;44.594;11.046;2022-11-28T13:16:42;101258.09;;;7.83;88.08
42125;BME280;27787;44.594;11.046;2022-11-28T13:22:57;101249.22;;;7.80;87.55
42125;BME280;27787;44.594;11.046;2022-11-28T13:26:36;101249.19;;;7.78;87.94
42125;BME280;27787;44.594;11.046;2022-11-28T13:29:30;101245.59;;;7.75;88.03
42125;BME280;27787;44.594;11.046;2022-11-28T13:35:20;101230.63;;;7.71;88.48
42125;BME280;27787;44.594;11.046;2022-11-28T13:42:27;101234.13;;;7.71;88.38
42125;BME280;27787;44.594;11.046;2022-11-28T13:45:05;101232.44;;;7.73;88.73
42125;BME280;27787;44.594;11.046;2022-11-28T13:51:31;101227.13;;;7.72;89.08
42125;BME280;27787;44.594;11.046;2022-11-28T13:57:25;101230.84;;;7.80;89.47
42125;BME280;27787;44.594;11.046;2022-11-28T14:00:21;101230.94;;;7.83;89.56
42125;BME280;27787;44.594;11.046;2022-11-28T14:03:17;101225.75;;;7.86;89.76
42125;BME280;27787;44.594;11.046;2022-11-28T14:06:05;101221.44;;;7.89;89.99
42125;BME280;27787;44.594;11.046;2022-11-28T14:09:16;101225.88;;;7.92;89.18
42125;BME280;27787;44.594;11.046;2022-11-28T14:15:28;101215.25;;;7.86;90.01
42125;BME280;27787;44.594;11.046;2022-11-28T14:21:10;101216.19;;;7.89;90.24
42125;BME280;27787;44.594;11.046;2022-11-28T14:24:23;101220.59;;;7.90;89.81
42125;BME280;27787;44.594;11.046;2022-11-28T14:27:16;101211.84;;;7.90;90.22
42125;BME280;27787;44.594;11.046;2022-11-28T14:30:03;101216.38;;;7.95;89.91
42125;BME280;27787;44.594;11.046;2022-11-28T14:32:48;101218.84;;;7.91;89.63
42125;BME280;27787;44.594;11.046;2022-11-28T14:41:20;101218.75;;;7.86;90.59
42125;BME280;27787;44.594;11.046;2022-11-28T14:47:29;101209.03;;;7.82;91.67
42125;BME280;27787;44.594;11.046;2022-11-28T14:53:42;101211.59;;;7.81;92.18
42125;BME280;27787;44.594;11.046;2022-11-28T14:56:27;101217.69;;;7.80;92.06
42125;BME280;27787;44.594;11.046;2022-11-28T14:59:12;101219.34;;;7.76;91.73
42125;BME280;27787;44.594;11.046;2022-11-28T15:05:09;101221.00;;;7.71;92.33
42125;BME280;27787;44.594;11.046;2022-11-28T15:14:26;101238.00;;;7.85;91.84
42125;BME280;27787;44.594;11.046;2022-11-28T15:17:13;101244.03;;;7.81;91.78
42125;BME280;27787;44.594;11.046;2022-11-28T15:20:03;101243.97;;;7.80;91.58
42125;BME280;27787;44.594;11.046;2022-11-28T15:22:51;101239.56;;;7.79;92.31
42125;BME280;27787;44.594;11.046;2022-11-28T15:25:35;101234.41;;;7.82;92.38
42125;BME280;27787;44.594;11.046;2022-11-28T15:28:22;101231.69;;;7.79;92.27
42125;BME280;27787;44.594;11.046;2022-11-28T15:31:21;101238.66;;;7.77;91.96
42125;BME280;27787;44.594;11.046;2022-11-28T15:34:09;101236.84;;;7.74;91.95
42125;BME280;27787;44.594;11.046;2022-11-28T15:36:55;101241.34;;;7.80;92.15
42125;BME280;27787;44.594;11.046;2022-11-28T15:39:41;101243.19;;;7.82;92.52
42125;BME280;27787;44.594;11.046;2022-11-28T15:45:21;101242.72;;;7.98;91.80
42125;BME280;27787;44.594;11.046;2022-11-28T15:48:24;101241.88;;;7.99;91.57
42125;BME280;27787;44.594;11.046;2022-11-28T15:51:29;101240.81;;;7.93;91.00
42125;BME280;27787;44.594;11.046;2022-11-28T15:54:37;101235.31;;;7.82;91.57
42125;BME280;27787;44.594;11.046;2022-11-28T15:57:25;101235.94;;;7.74;91.69
42125;BME280;27787;44.594;11.046;2022-11-28T16:00:13;101227.88;;;7.67;91.61
42125;BME280;27787;44.594;11.046;2022-11-28T16:02:58;101239.19;;;7.65;90.63
42125;BME280;27787;44.594;11.046;2022-11-28T16:05:44;101233.84;;;7.60;90.97
42125;BME280;27787;44.594;11.046;2022-11-28T16:08:46;101232.88;;;7.57;91.15
42125;BME280;27787;44.594;11.046;2022-11-28T16:11:33;101231.16;;;7.59;90.80
42125;BME280;27787;44.594;11.046;2022-11-28T16:14:29;101224.16;;;7.58;90.57
42125;BME280;27787;44.594;11.046;2022-11-28T16:17:33;101224.16;;;7.58;91.00
42125;BME280;27787;44.594;11.046;2022-11-28T16:23:09;101231.13;;;7.57;90.88
42125;BME280;27787;44.594;11.046;2022-11-28T16:26:02;101237.16;;;7.55;89.68
42125;BME280;27787;44.594;11.046;2022-11-28T16:31:52;101233.75;;;7.57;89.89
42125;BME280;27787;44.594;11.046;2022-11-28T16:34:44;101238.13;;;7.57;89.69
42125;BME280;27787;44.594;11.046;2022-11-28T16:37:30;101238.25;;;7.61;89.88
42125;BME280;27787;44.594;11.046;2022-11-28T16:40:17;101241.91;;;7.68;89.87
42125;BME280;27787;44.594;11.046;2022-11-28T16:43:02;101249.13;;;7.75;89.53
42125;BME280;27787;44.594;11.046;2022-11-28T16:45:59;101245.81;;;7.82;89.67
42125;BME280;27787;44.594;11.046;2022-11-28T16:48:52;101240.63;;;7.85;90.19
42125;BME280;27787;44.594;11.046;2022-11-28T16:51:38;101231.00;;;7.86;90.99
42125;BME280;27787;44.594;11.046;2022-11-28T16:54:29;101240.78;;;7.91;91.81
42125;BME280;27787;44.594;11.046;2022-11-28T16:57:13;101243.53;;;7.96;91.14
42125;BME280;27787;44.594;11.046;2022-11-28T16:59:57;101239.13;;;7.95;91.07
42125;BME280;27787;44.594;11.046;2022-11-28T17:02:41;101238.31;;;7.97;91.26
42125;BME280;27787;44.594;11.046;2022-11-28T17:05:26;101236.50;;;7.95;91.51
42125;BME280;27787;44.594;11.046;2022-11-28T17:08:10;101231.25;;;7.95;91.75
42125;BME280;27787;44.594;11.046;2022-11-28T17:10:54;101228.56;;;7.93;92.28
42125;BME280;27787;44.594;11.046;2022-11-28T17:13:38;101234.69;;;7.94;92.77
42125;BME280;27787;44.594;11.046;2022-11-28T17:16:23;101228.66;;;7.96;93.00
42125;BME280;27787;44.594;11.046;2022-11-28T17:19:07;101232.19;;;7.97;93.24
42125;BME280;27787;44.594;11.046;2022-11-28T17:21:55;101234.84;;;7.98;93.94